sensor_id;sensor_type;location;lat;lon;timestamp;P1;durP1;ratioP1;P2;durP2;ratioP2
43413;SDS011;73638;49.676;8.606;2024-02-14T00:02:44;2.6208;;;8.7393;;
43413;SDS011;73638;49.676;8.606;2024-02-14T00:07:50;3.1773;;;8.7744;;
43413;SDS011;73638;49.676;8.606;2024-02-14T00:12:57;3.2852;;;5.7934;;
43413;SDS011;73638;49.676;8.606;2024-02-14T00:18:04;2.534;;;4.0306;;
43413;SDS011;73638;49.676;8.606;2024-02-14T00:23:11;2.9973;;;6.2721;;
43413;SDS011;73638;49.676;8.606;2024-02-14T00:28:17;3.2337;;;9.7572;;
43413;SDS011;73638;49.676;8.606;2024-02-14T00:33:24;2.9105;;;8.5727;;
43413;SDS011;73638;49.676;8.606;2024-02-14T00:38:30;3.1282;;;5.673;;
43413;SDS011;73638;49.676;8.606;2024-02-14T00:43:37;2.9353;;;5.647;;
43413;SDS011;73638;49.676;8.606;2024-02-14T00:48:44;2.6417;;;4.2059;;
43413;SDS011;73638;49.676;8.606;2024-02-14T00:53:51;2.9227;;;6.4612;;
43413;SDS011;73638;49.676;8.606;2024-02-14T00:58:57;2.6117;;;5.5077;;
43413;SDS011;73638;49.676;8.606;2024-02-14T01:04:04;3.2629;;;5.6533;;
43413;SDS011;73638;49.676;8.606;2024-02-14T01:09:10;3.1963;;;6.9099;;
43413;SDS011;73638;49.676;8.606;2024-02-14T01:14:17;2.9135;;;5.664;;
43413;SDS011;73638;49.676;8.606;2024-02-14T01:19:24;3.2527;;;6.2155;;
43413;SDS011;73638;49.676;8.606;2024-02-14T01:24:31;2.8509;;;6.7414;;
43413;SDS011;73638;49.676;8.606;2024-02-14T01:29:38;2.4708;;;4.8462;;
43413;SDS011;73638;49.676;8.606;2024-02-14T01:34:44;2.7667;;;6.1404;;
43413;SDS011;73638;49.676;8.606;2024-02-14T01:39:51;2.7103;;;4.825;;
43413;SDS011;73638;49.676;8.606;2024-02-14T01:44:57;2.2145;;;5.1591;;
43413;SDS011;73638;49.676;8.606;2024-02-14T01:50:05;2.194;;;3.4582;;
43413;SDS011;73638;49.676;8.606;2024-02-14T01:55:11;2.0697;;;3.5375;;
43413;SDS011;73638;49.676;8.606;2024-02-14T02:00:18;2.4383;;;7.7591;;
43413;SDS011;73638;49.676;8.606;2024-02-14T02:05:25;2.2565;;;4.3014;;
43413;SDS011;73638;49.676;8.606;2024-02-14T02:10:31;2.299;;;5.1406;;
43413;SDS011;73638;49.676;8.606;2024-02-14T02:15:38;2.2633;;;5.8421;;
43413;SDS011;73638;49.676;8.606;2024-02-14T02:20:45;2.8655;;;5.9211;;
43413;SDS011;73638;49.676;8.606;2024-02-14T02:25:51;2.3409;;;7.9429;;
43413;SDS011;73638;49.676;8.606;2024-02-14T02:30:58;2.8076;;;8.5122;;
43413;SDS011;73638;49.676;8.606;2024-02-14T02:36:05;2.6017;;;5.2502;;
43413;SDS011;73638;49.676;8.606;2024-02-14T02:41:11;2.9512;;;6.2786;;
43413;SDS011;73638;49.676;8.606;2024-02-14T02:46:18;3.083;;;8.2757;;
43413;SDS011;73638;49.676;8.606;2024-02-14T02:51:25;3.0945;;;5.501;;
43413;SDS011;73638;49.676;8.606;2024-02-14T02:56:32;3.2105;;;9.044;;
43413;SDS011;73638;49.676;8.606;2024-02-14T03:01:39;2.9928;;;5.665;;
43413;SDS011;73638;49.676;8.606;2024-02-14T03:06:45;3.1859;;;5.8971;;
43413;SDS011;73638;49.676;8.606;2024-02-14T03:11:52;3.4728;;;8.0888;;
43413;SDS011;73638;49.676;8.606;2024-02-14T03:16:59;3.0629;;;6.1864;;
43413;SDS011;73638;49.676;8.606;2024-02-14T03:22:05;2.8982;;;6.6194;;
43413;SDS011;73638;49.676;8.606;2024-02-14T03:27:12;2.9413;;;8.0986;;
43413;SDS011;73638;49.676;8.606;2024-02-14T03:32:18;2.7244;;;5.1044;;
43413;SDS011;73638;49.676;8.606;2024-02-14T03:37:25;2.5275;;;6.0621;;
43413;SDS011;73638;49.676;8.606;2024-02-14T03:42:32;2.8146;;;6.184;;
43413;SDS011;73638;49.676;8.606;2024-02-14T03:47:39;2.6177;;;16.4094;;
43413;SDS011;73638;49.676;8.606;2024-02-14T03:52:45;2.541;;;7.1548;;
43413;SDS011;73638;49.676;8.606;2024-02-14T03:57:52;3.1183;;;8.1099;;
43413;SDS011;73638;49.676;8.606;2024-02-14T04:02:59;2.5177;;;6.383;;
43413;SDS011;73638;49.676;8.606;2024-02-14T04:08:05;2.4191;;;9.4097;;
43413;SDS011;73638;49.676;8.606;2024-02-14T04:13:12;2.7578;;;6.7959;;
43413;SDS011;73638;49.676;8.606;2024-02-14T04:18:19;2.5492;;;4.7546;;
43413;SDS011;73638;49.676;8.606;2024-02-14T04:23:26;2.9758;;;7.2856;;
43413;SDS011;73638;49.676;8.606;2024-02-14T04:28:32;2.7255;;;6.4899;;
43413;SDS011;73638;49.676;8.606;2024-02-14T04:33:39;2.555;;;6.8022;;
43413;SDS011;73638;49.676;8.606;2024-02-14T04:38:46;3.1039;;;10.9534;;
43413;SDS011;73638;49.676;8.606;2024-02-14T04:43:53;3.047;;;4.9339;;
43413;SDS011;73638;49.676;8.606;2024-02-14T04:49:00;2.7129;;;7.5001;;
43413;SDS011;73638;49.676;8.606;2024-02-14T04:54:06;3.3427;;;8.2573;;
43413;SDS011;73638;49.676;8.606;2024-02-14T04:59:13;2.5943;;;6.696;;
43413;SDS011;73638;49.676;8.606;2024-02-14T05:04:20;2.9492;;;5.8872;;
43413;SDS011;73638;49.676;8.606;2024-02-14T05:09:26;2.5117;;;4.3578;;
43413;SDS011;73638;49.676;8.606;2024-02-14T05:14:37;2.3982;;;5.9447;;
43413;SDS011;73638;49.676;8.606;2024-02-14T05:19:41;2.8251;;;8.3201;;
43413;SDS011;73638;49.676;8.606;2024-02-14T05:24:47;2.8459;;;6.1449;;
43413;SDS011;73638;49.676;8.606;2024-02-14T05:29:53;2.7463;;;6.2275;;
43413;SDS011;73638;49.676;8.606;2024-02-14T05:35:01;2.6012;;;5.0068;;
43413;SDS011;73638;49.676;8.606;2024-02-14T05:40:07;2.7275;;;8.522;;
43413;SDS011;73638;49.676;8.606;2024-02-14T05:45:14;3.0137;;;5.5651;;
43413;SDS011;73638;49.676;8.606;2024-02-14T05:50:21;1.9412;;;4.8895;;
43413;SDS011;73638;49.676;8.606;2024-02-14T05:55:27;3.266;;;6.4992;;
43413;SDS011;73638;49.676;8.606;2024-02-14T06:00:34;2.9633;;;7.1102;;
43413;SDS011;73638;49.676;8.606;2024-02-14T06:05:40;2.6551;;;5.5992;;
43413;SDS011;73638;49.676;8.606;2024-02-14T06:10:47;2.6229;;;4.1428;;
43413;SDS011;73638;49.676;8.606;2024-02-14T06:15:54;2.3904;;;7.3799;;
43413;SDS011;73638;49.676;8.606;2024-02-14T06:21:01;2.7172;;;7.7824;;
43413;SDS011;73638;49.676;8.606;2024-02-14T06:26:07;2.344;;;6.5658;;
43413;SDS011;73638;49.676;8.606;2024-02-14T06:31:16;2.5422;;;4.9008;;
43413;SDS011;73638;49.676;8.606;2024-02-14T06:36:21;2.2616;;;7.9643;;
43413;SDS011;73638;49.676;8.606;2024-02-14T06:41:27;2.0749;;;8.6311;;
43413;SDS011;73638;49.676;8.606;2024-02-14T06:46:34;2.3973;;;4.925;;
43413;SDS011;73638;49.676;8.606;2024-02-14T06:51:42;2.5294;;;6.0735;;
43413;SDS011;73638;49.676;8.606;2024-02-14T06:56:47;2.4499;;;4.4009;;
43413;SDS011;73638;49.676;8.606;2024-02-14T07:01:56;2.5476;;;5.3017;;
43413;SDS011;73638;49.676;8.606;2024-02-14T07:07:01;2.4333;;;4.725;;
43413;SDS011;73638;49.676;8.606;2024-02-14T07:12:08;2.1227;;;4.8744;;
43413;SDS011;73638;49.676;8.606;2024-02-14T07:17:14;2.0599;;;5.1728;;
43413;SDS011;73638;49.676;8.606;2024-02-14T07:22:21;2.5574;;;6.8199;;
43413;SDS011;73638;49.676;8.606;2024-02-14T07:27:28;2.1612;;;5.8624;;
43413;SDS011;73638;49.676;8.606;2024-02-14T07:32:36;2.3641;;;5.4173;;
43413;SDS011;73638;49.676;8.606;2024-02-14T07:37:41;2.8326;;;7.182;;
43413;SDS011;73638;49.676;8.606;2024-02-14T07:42:48;2.2225;;;4.2675;;
43413;SDS011;73638;49.676;8.606;2024-02-14T07:47:55;2.4795;;;6.9187;;
43413;SDS011;73638;49.676;8.606;2024-02-14T07:53:02;2.8367;;;7.612;;
43413;SDS011;73638;49.676;8.606;2024-02-14T07:58:08;2.4276;;;5.392;;
43413;SDS011;73638;49.676;8.606;2024-02-14T08:03:15;2.5578;;;6.2668;;
43413;SDS011;73638;49.676;8.606;2024-02-14T08:08:22;2.1007;;;6.0904;;
43413;SDS011;73638;49.676;8.606;2024-02-14T08:13:29;1.8885;;;6.7031;;
43413;SDS011;73638;49.676;8.606;2024-02-14T08:18:35;2.5751;;;8.6956;;
43413;SDS011;73638;49.676;8.606;2024-02-14T08:23:42;2.1815;;;4.5707;;
43413;SDS011;73638;49.676;8.606;2024-02-14T08:28:49;2.1343;;;5.2206;;
43413;SDS011;73638;49.676;8.606;2024-02-14T08:33:56;1.5167;;;4.1827;;
43413;SDS011;73638;49.676;8.606;2024-02-14T08:39:03;2.2276;;;4.7231;;
43413;SDS011;73638;49.676;8.606;2024-02-14T08:44:09;2.0452;;;4.37;;
43413;SDS011;73638;49.676;8.606;2024-02-14T08:49:16;2.031;;;4.4785;;
43413;SDS011;73638;49.676;8.606;2024-02-14T08:54:22;2.2377;;;4.3628;;
43413;SDS011;73638;49.676;8.606;2024-02-14T08:59:29;2.1262;;;4.4245;;
43413;SDS011;73638;49.676;8.606;2024-02-14T09:04:36;2.2708;;;4.7867;;
43413;SDS011;73638;49.676;8.606;2024-02-14T09:09:43;2.2853;;;7.823;;
43413;SDS011;73638;49.676;8.606;2024-02-14T09:14:49;1.991;;;4.1624;;
43413;SDS011;73638;49.676;8.606;2024-02-14T09:19:56;2.429;;;7.371;;
43413;SDS011;73638;49.676;8.606;2024-02-14T09:25:03;2.2918;;;5.065;;
43413;SDS011;73638;49.676;8.606;2024-02-14T09:30:25;2.0083;;;5.243;;
43413;SDS011;73638;49.676;8.606;2024-02-14T09:35:17;2.2601;;;5.4526;;
43413;SDS011;73638;49.676;8.606;2024-02-14T09:40:24;2.1001;;;7.3762;;
43413;SDS011;73638;49.676;8.606;2024-02-14T09:45:32;2.0026;;;6.0447;;
43413;SDS011;73638;49.676;8.606;2024-02-14T09:50:38;2.1004;;;7.6503;;
43413;SDS011;73638;49.676;8.606;2024-02-14T09:55:45;2.1075;;;6.0083;;
43413;SDS011;73638;49.676;8.606;2024-02-14T10:00:52;2.2741;;;4.7351;;
43413;SDS011;73638;49.676;8.606;2024-02-14T10:05:59;2.0213;;;6.4649;;
43413;SDS011;73638;49.676;8.606;2024-02-14T10:11:06;2.2183;;;8.6424;;
43413;SDS011;73638;49.676;8.606;2024-02-14T10:16:13;2.6686;;;6.3731;;
43413;SDS011;73638;49.676;8.606;2024-02-14T10:21:19;2.3373;;;8.7714;;
43413;SDS011;73638;49.676;8.606;2024-02-14T10:26:26;2.0054;;;4.0475;;
43413;SDS011;73638;49.676;8.606;2024-02-14T10:31:33;1.8984;;;3.7472;;
43413;SDS011;73638;49.676;8.606;2024-02-14T10:36:40;2.1375;;;5.4538;;
43413;SDS011;73638;49.676;8.606;2024-02-14T10:41:47;2.4043;;;6.7144;;
43413;SDS011;73638;49.676;8.606;2024-02-14T10:46:53;2.3876;;;7.0105;;
43413;SDS011;73638;49.676;8.606;2024-02-14T10:52:02;1.9965;;;5.7744;;
43413;SDS011;73638;49.676;8.606;2024-02-14T10:57:07;2.5751;;;5.3235;;
43413;SDS011;73638;49.676;8.606;2024-02-14T11:02:14;2.8797;;;7.0987;;
43413;SDS011;73638;49.676;8.606;2024-02-14T11:07:21;2.0947;;;4.3824;;
43413;SDS011;73638;49.676;8.606;2024-02-14T11:12:32;1.9307;;;7.1964;;
43413;SDS011;73638;49.676;8.606;2024-02-14T11:17:35;2.2761;;;8.7519;;
43413;SDS011;73638;49.676;8.606;2024-02-14T11:22:49;1.692;;;3.9774;;
43413;SDS011;73638;49.676;8.606;2024-02-14T11:27:49;1.9333;;;4.6572;;
43413;SDS011;73638;49.676;8.606;2024-02-14T11:33:08;3.1827;;;11.1666;;
43413;SDS011;73638;49.676;8.606;2024-02-14T11:38:03;3.3924;;;7.8761;;
43413;SDS011;73638;49.676;8.606;2024-02-14T11:43:10;2.6234;;;6.0604;;
43413;SDS011;73638;49.676;8.606;2024-02-14T11:48:17;3.3318;;;6.6253;;
43413;SDS011;73638;49.676;8.606;2024-02-14T11:53:24;2.2569;;;5.4196;;
43413;SDS011;73638;49.676;8.606;2024-02-14T11:58:30;2.0932;;;6.4722;;
43413;SDS011;73638;49.676;8.606;2024-02-14T12:03:38;2.0696;;;4.1395;;
43413;SDS011;73638;49.676;8.606;2024-02-14T12:08:45;2.0033;;;6.0858;;
43413;SDS011;73638;49.676;8.606;2024-02-14T12:13:52;2.1957;;;5.7033;;
43413;SDS011;73638;49.676;8.606;2024-02-14T12:19:03;2.0397;;;4.2782;;
43413;SDS011;73638;49.676;8.606;2024-02-14T12:24:06;2.1029;;;5.0642;;
43413;SDS011;73638;49.676;8.606;2024-02-14T12:29:13;1.717;;;4.7955;;
43413;SDS011;73638;49.676;8.606;2024-02-14T12:34:27;1.9613;;;3.404;;
43413;SDS011;73638;49.676;8.606;2024-02-14T12:39:26;1.2699;;;4.2562;;
43413;SDS011;73638;49.676;8.606;2024-02-14T12:44:33;1.4191;;;2.7165;;
43413;SDS011;73638;49.676;8.606;2024-02-14T12:49:40;1.7442;;;3.5947;;
43413;SDS011;73638;49.676;8.606;2024-02-14T12:54:47;1.7815;;;3.039;;
43413;SDS011;73638;49.676;8.606;2024-02-14T12:59:54;1.3463;;;3.164;;
43413;SDS011;73638;49.676;8.606;2024-02-14T13:05:01;1.6248;;;7.8373;;
43413;SDS011;73638;49.676;8.606;2024-02-14T13:10:08;1.6241;;;2.5787;;
43413;SDS011;73638;49.676;8.606;2024-02-14T13:15:15;1.3814;;;3.9492;;
43413;SDS011;73638;49.676;8.606;2024-02-14T13:20:22;1.5322;;;3.7956;;
43413;SDS011;73638;49.676;8.606;2024-02-14T13:25:29;1.7179;;;3.2324;;
43413;SDS011;73638;49.676;8.606;2024-02-14T13:30:38;1.4944;;;2.1098;;
43413;SDS011;73638;49.676;8.606;2024-02-14T13:35:42;1.2625;;;1.8029;;
43413;SDS011;73638;49.676;8.606;2024-02-14T13:40:49;1.7003;;;2.9667;;
43413;SDS011;73638;49.676;8.606;2024-02-14T13:45:56;1.4011;;;2.0644;;
43413;SDS011;73638;49.676;8.606;2024-02-14T13:51:03;1.3227;;;1.6959;;
43413;SDS011;73638;49.676;8.606;2024-02-14T13:56:10;1.4657;;;2.3788;;
43413;SDS011;73638;49.676;8.606;2024-02-14T14:01:17;1.3514;;;2.7778;;
43413;SDS011;73638;49.676;8.606;2024-02-14T14:06:24;1.1396;;;2.2341;;
43413;SDS011;73638;49.676;8.606;2024-02-14T14:11:30;1.7226;;;2.8547;;
43413;SDS011;73638;49.676;8.606;2024-02-14T14:16:37;1.7459;;;2.4353;;
43413;SDS011;73638;49.676;8.606;2024-02-14T14:21:44;1.8578;;;3.2992;;
43413;SDS011;73638;49.676;8.606;2024-02-14T14:26:50;2.1507;;;3.5329;;
43413;SDS011;73638;49.676;8.606;2024-02-14T14:31:57;1.9855;;;3.9468;;
43413;SDS011;73638;49.676;8.606;2024-02-14T14:37:04;1.8848;;;6.2269;;
43413;SDS011;73638;49.676;8.606;2024-02-14T14:42:11;1.7242;;;4.2325;;
43413;SDS011;73638;49.676;8.606;2024-02-14T14:47:17;1.7164;;;3.6723;;
43413;SDS011;73638;49.676;8.606;2024-02-14T14:52:24;1.5102;;;1.9908;;
43413;SDS011;73638;49.676;8.606;2024-02-14T14:57:31;2.1455;;;4.7438;;
43413;SDS011;73638;49.676;8.606;2024-02-14T15:02:39;1.5902;;;2.6635;;
43413;SDS011;73638;49.676;8.606;2024-02-14T15:07:45;1.8343;;;3.425;;
43413;SDS011;73638;49.676;8.606;2024-02-14T15:12:52;1.9192;;;3.2965;;
43413;SDS011;73638;49.676;8.606;2024-02-14T15:17:59;2.5197;;;4.5372;;
43413;SDS011;73638;49.676;8.606;2024-02-14T15:23:05;1.7767;;;3.9688;;
43413;SDS011;73638;49.676;8.606;2024-02-14T15:28:12;1.5815;;;4.4392;;
43413;SDS011;73638;49.676;8.606;2024-02-14T15:33:19;1.984;;;5.2972;;
43413;SDS011;73638;49.676;8.606;2024-02-14T15:38:26;1.6613;;;3.4027;;
43413;SDS011;73638;49.676;8.606;2024-02-14T15:43:33;1.716;;;4.8192;;
43413;SDS011;73638;49.676;8.606;2024-02-14T15:48:40;2.7252;;;6.1553;;
43413;SDS011;73638;49.676;8.606;2024-02-14T15:53:47;3.3183;;;6.5552;;
43413;SDS011;73638;49.676;8.606;2024-02-14T15:58:53;1.5873;;;2.7704;;
43413;SDS011;73638;49.676;8.606;2024-02-14T16:04:00;1.0937;;;1.9961;;
43413;SDS011;73638;49.676;8.606;2024-02-14T16:09:07;1.8153;;;3.0738;;
43413;SDS011;73638;49.676;8.606;2024-02-14T16:14:13;1.6329;;;1.9644;;
43413;SDS011;73638;49.676;8.606;2024-02-14T16:19:21;2.1126;;;5.0327;;
43413;SDS011;73638;49.676;8.606;2024-02-14T16:24:28;3.0128;;;4.8918;;
43413;SDS011;73638;49.676;8.606;2024-02-14T16:29:34;3.8676;;;4.9213;;
43413;SDS011;73638;49.676;8.606;2024-02-14T16:34:41;3.4196;;;6.1415;;
43413;SDS011;73638;49.676;8.606;2024-02-14T16:39:48;3.2728;;;4.585;;
43413;SDS011;73638;49.676;8.606;2024-02-14T16:44:55;3.1469;;;5.3447;;
43413;SDS011;73638;49.676;8.606;2024-02-14T16:50:02;2.9737;;;4.7305;;
43413;SDS011;73638;49.676;8.606;2024-02-14T16:55:08;3.3053;;;4.0679;;
43413;SDS011;73638;49.676;8.606;2024-02-14T17:00:16;3.1045;;;4.6275;;
43413;SDS011;73638;49.676;8.606;2024-02-14T17:05:23;2.1916;;;3.6083;;
43413;SDS011;73638;49.676;8.606;2024-02-14T17:10:29;2.4766;;;3.9914;;
43413;SDS011;73638;49.676;8.606;2024-02-14T17:15:36;2.3077;;;3.0181;;
43413;SDS011;73638;49.676;8.606;2024-02-14T17:20:43;2.7508;;;4.8148;;
43413;SDS011;73638;49.676;8.606;2024-02-14T17:25:50;2.6536;;;4.2676;;
43413;SDS011;73638;49.676;8.606;2024-02-14T17:30:56;3.0477;;;5.1125;;
43413;SDS011;73638;49.676;8.606;2024-02-14T17:36:04;2.8861;;;7.4851;;
43413;SDS011;73638;49.676;8.606;2024-02-14T17:41:10;3.9851;;;4.8641;;
43413;SDS011;73638;49.676;8.606;2024-02-14T17:46:17;3.8;;;5.3928;;
43413;SDS011;73638;49.676;8.606;2024-02-14T17:51:24;3.5701;;;4.453;;
43413;SDS011;73638;49.676;8.606;2024-02-14T17:56:31;3.4233;;;4.8837;;
43413;SDS011;73638;49.676;8.606;2024-02-14T18:01:38;2.7502;;;5.9146;;
43413;SDS011;73638;49.676;8.606;2024-02-14T18:06:45;3.1267;;;4.3876;;
43413;SDS011;73638;49.676;8.606;2024-02-14T18:11:51;3.0963;;;4.5449;;
43413;SDS011;73638;49.676;8.606;2024-02-14T18:16:58;3.4861;;;5.2617;;
43413;SDS011;73638;49.676;8.606;2024-02-14T18:22:05;3.9479;;;6.958;;
43413;SDS011;73638;49.676;8.606;2024-02-14T18:27:13;3.5564;;;7.1684;;
43413;SDS011;73638;49.676;8.606;2024-02-14T18:32:19;3.1219;;;6.5786;;
43413;SDS011;73638;49.676;8.606;2024-02-14T18:37:26;2.2065;;;3.77;;
43413;SDS011;73638;49.676;8.606;2024-02-14T18:42:33;3.2998;;;4.6045;;
43413;SDS011;73638;49.676;8.606;2024-02-14T18:47:40;2.6722;;;4.0563;;
43413;SDS011;73638;49.676;8.606;2024-02-14T18:52:47;3.2058;;;4.7927;;
43413;SDS011;73638;49.676;8.606;2024-02-14T18:57:54;3.3896;;;6.2241;;
43413;SDS011;73638;49.676;8.606;2024-02-14T19:03:01;3.5544;;;5.5353;;
43413;SDS011;73638;49.676;8.606;2024-02-14T19:08:10;2.8614;;;3.4106;;
43413;SDS011;73638;49.676;8.606;2024-02-14T19:13:14;2.514;;;4.0429;;
43413;SDS011;73638;49.676;8.606;2024-02-14T19:18:21;1.9751;;;2.6045;;
43413;SDS011;73638;49.676;8.606;2024-02-14T19:23:28;1.7599;;;2.2964;;
43413;SDS011;73638;49.676;8.606;2024-02-14T19:28:35;2.3433;;;5.8257;;
43413;SDS011;73638;49.676;8.606;2024-02-14T19:33:42;3.5084;;;5.834;;
43413;SDS011;73638;49.676;8.606;2024-02-14T19:38:49;3.195;;;5.0072;;
43413;SDS011;73638;49.676;8.606;2024-02-14T19:43:55;3.3237;;;5.8327;;
43413;SDS011;73638;49.676;8.606;2024-02-14T19:49:02;1.9669;;;2.9675;;
43413;SDS011;73638;49.676;8.606;2024-02-14T19:54:09;2.0854;;;2.8057;;
43413;SDS011;73638;49.676;8.606;2024-02-14T19:59:15;2.1547;;;3.0095;;
43413;SDS011;73638;49.676;8.606;2024-02-14T20:04:22;2.294;;;4.7363;;
43413;SDS011;73638;49.676;8.606;2024-02-14T20:09:29;2.713;;;5.0659;;
43413;SDS011;73638;49.676;8.606;2024-02-14T20:14:36;3.9377;;;8.4599;;
43413;SDS011;73638;49.676;8.606;2024-02-14T20:19:43;2.0458;;;3.1596;;
43413;SDS011;73638;49.676;8.606;2024-02-14T20:24:50;2.3778;;;7.5297;;
43413;SDS011;73638;49.676;8.606;2024-02-14T20:29:57;2.1532;;;2.5447;;
43413;SDS011;73638;49.676;8.606;2024-02-14T20:35:04;2.2627;;;2.6023;;
43413;SDS011;73638;49.676;8.606;2024-02-14T20:40:11;2.245;;;2.9259;;
43413;SDS011;73638;49.676;8.606;2024-02-14T20:45:17;2.6162;;;4.7917;;
43413;SDS011;73638;49.676;8.606;2024-02-14T20:50:24;2.2481;;;3.3947;;
43413;SDS011;73638;49.676;8.606;2024-02-14T20:55:36;2.3033;;;4.4686;;
43413;SDS011;73638;49.676;8.606;2024-02-14T21:00:40;2.6434;;;3.4299;;
43413;SDS011;73638;49.676;8.606;2024-02-14T21:05:47;2.4354;;;6.0404;;
43413;SDS011;73638;49.676;8.606;2024-02-14T21:10:54;2.1243;;;4.2885;;
43413;SDS011;73638;49.676;8.606;2024-02-14T21:16:01;2.5258;;;4.1373;;
43413;SDS011;73638;49.676;8.606;2024-02-14T21:21:08;2.8959;;;5.3159;;
43413;SDS011;73638;49.676;8.606;2024-02-14T21:26:14;2.018;;;2.5916;;
43413;SDS011;73638;49.676;8.606;2024-02-14T21:31:21;2.558;;;4.5983;;
43413;SDS011;73638;49.676;8.606;2024-02-14T21:36:28;2.9373;;;5.9126;;
43413;SDS011;73638;49.676;8.606;2024-02-14T21:41:35;2.5946;;;4.7452;;
43413;SDS011;73638;49.676;8.606;2024-02-14T21:46:42;2.1207;;;2.7496;;
43413;SDS011;73638;49.676;8.606;2024-02-14T21:51:49;2.6173;;;4.0363;;
43413;SDS011;73638;49.676;8.606;2024-02-14T21:56:55;2.4445;;;3.8437;;
43413;SDS011;73638;49.676;8.606;2024-02-14T22:02:02;3.1659;;;3.8957;;
43413;SDS011;73638;49.676;8.606;2024-02-14T22:07:09;2.89;;;6.1713;;
43413;SDS011;73638;49.676;8.606;2024-02-14T22:12:16;2.6687;;;5.2869;;
43413;SDS011;73638;49.676;8.606;2024-02-14T22:17:23;2.8684;;;4.9471;;
43413;SDS011;73638;49.676;8.606;2024-02-14T22:22:29;2.8527;;;4.3624;;
43413;SDS011;73638;49.676;8.606;2024-02-14T22:27:36;2.5235;;;2.6904;;
43413;SDS011;73638;49.676;8.606;2024-02-14T22:32:43;2.6235;;;3.4749;;
43413;SDS011;73638;49.676;8.606;2024-02-14T22:37:50;2.6728;;;4.506;;
43413;SDS011;73638;49.676;8.606;2024-02-14T22:42:57;2.265;;;4.1975;;
43413;SDS011;73638;49.676;8.606;2024-02-14T22:48:04;2.0221;;;3.6716;;
43413;SDS011;73638;49.676;8.606;2024-02-14T22:53:10;2.3315;;;5.0029;;
43413;SDS011;73638;49.676;8.606;2024-02-14T22:58:17;2.2522;;;5.7182;;
43413;SDS011;73638;49.676;8.606;2024-02-14T23:03:24;2.7974;;;5.0991;;
43413;SDS011;73638;49.676;8.606;2024-02-14T23:08:31;2.8435;;;5.0777;;
43413;SDS011;73638;49.676;8.606;2024-02-14T23:13:38;3.1475;;;5.1991;;
43413;SDS011;73638;49.676;8.606;2024-02-14T23:18:45;2.7631;;;3.438;;
43413;SDS011;73638;49.676;8.606;2024-02-14T23:23:51;2.4952;;;3.5456;;
43413;SDS011;73638;49.676;8.606;2024-02-14T23:28:58;3.164;;;5.8341;;
43413;SDS011;73638;49.676;8.606;2024-02-14T23:34:05;2.8614;;;7.0227;;
43413;SDS011;73638;49.676;8.606;2024-02-14T23:39:12;2.366;;;3.4565;;
43413;SDS011;73638;49.676;8.606;2024-02-14T23:44:19;2.8265;;;4.6416;;
43413;SDS011;73638;49.676;8.606;2024-02-14T23:49:25;2.4341;;;3.3101;;
43413;SDS011;73638;49.676;8.606;2024-02-14T23:54:32;2.9915;;;5.64;;
43413;SDS011;73638;49.676;8.606;2024-02-14T23:59:39;2.4612;;;2.9309;;
